Fykan — LLDJ — position and weather

sailwx.info

Track history (hours):
 
Tides and Currents Weather Stations Pressure Air Temp Water Temp Dewpoint Dewpoint Depression Visibility Wind Speed Wind Dir Waves Ship Positions

Fykan

Last reported at 2015-Aug-03 10:33 UTC. Time now 2015-Aug-04 11:46 UTC.
Position N 66°17' E 012°56'.

Length 52 m; draft 3.3 m.

Type: Ship. MMSI: 259681000.

Date/timePositionNaut miles runAvg speedWind from/ knotsBaromVisibWave heightAir tempDewpointWater temp
2015-Aug-03 10:33N 66°17' E 012°56'10 9.6
2015-Aug-03 09:29N 66°28' E 012°59'8 2.7
2015-Aug-03 06:23N 66°36' E 012°59'4 5.1
2015-Aug-03 05:33N 66°34' E 012°50'4 0.3
2015-Aug-02 15:25N 66°36' E 012°59'4 5.2
2015-Aug-02 14:33N 66°34' E 012°50'1 0.0
2015-Aug-01 10:30N 66°34' E 012°47'5 1.3
2015-Aug-01 06:24N 66°36' E 012°59'4 5.0
2015-Aug-01 05:33N 66°34' E 012°50'3 0.4
2015-Jul-31 20:13N 66°34' E 012°58'2 0.6
2015-Jul-31 17:06N 66°36' E 012°59'3 5.6
2015-Jul-31 16:33N 66°34' E 012°54'5 1.0
2015-Jul-31 11:13N 66°36' E 012°41'6 7.2
2015-Jul-31 10:26N 66°34' E 012°54'3 0.5
2015-Jul-31 05:15N 66°36' E 012°59'5 6.0
2015-Jul-31 04:28N 66°34' E 012°48'2 0.2
2015-Jul-30 18:17N 66°35' E 012°45'6 1.6
2015-Jul-30 14:32N 66°36' E 012°59'5 5.2
2015-Jul-30 13:33N 66°34' E 012°47'3 1.0
2015-Jul-30 10:19N 66°34' E 012°55'3 0.7
2015-Jul-30 06:29N 66°36' E 012°59'4 4.6
2015-Jul-30 05:33N 66°34' E 012°50'0 0.0
2015-Jul-29 20:32N 66°34' E 012°50'4 0.7
2015-Jul-29 14:33N 66°36' E 012°59'5 5.3
2015-Jul-29 13:34N 66°34' E 012°47'1 0.3
2015-Jul-29 10:33N 66°34' E 012°49'5 1.1
2015-Jul-29 06:23N 66°36' E 012°59'5 5.4
2015-Jul-29 05:30N 66°34' E 012°49'4 0.4
2015-Jul-28 20:11N 66°34' E 012°59'  
2015-Jul-25 06:19N 66°36' E 012°59'5 5.4
2015-Jul-25 05:27N 66°34' E 012°49'5 0.4
2015-Jul-24 17:21N 66°37' E 012°59'5 5.0
2015-Jul-24 16:22N 66°34' E 012°50'  
Track history (hours):
 
Tides and Currents Weather Stations Pressure Air Temp Water Temp Dewpoint Dewpoint Depression Visibility Wind Speed Wind Dir Waves Ship Positions

Fykan

Last reported at 2015-Aug-03 10:33 UTC. Time now 2015-Aug-04 11:46 UTC.
Position N 66°17' E 012°56'.

Length 52 m; draft 3.3 m.

Type: Ship. MMSI: 259681000.

Date/timePositionNaut miles runAvg speedWind from/ knotsBaromVisibWave heightAir tempDewpointWater temp
2015-Aug-03 10:33N 66°17' E 012°56'10 9.6
2015-Aug-03 09:29N 66°28' E 012°59'8 2.7
2015-Aug-03 06:23N 66°36' E 012°59'4 5.1
2015-Aug-03 05:33N 66°34' E 012°50'4 0.3
2015-Aug-02 15:25N 66°36' E 012°59'4 5.2
2015-Aug-02 14:33N 66°34' E 012°50'1 0.0
2015-Aug-01 10:30N 66°34' E 012°47'5 1.3
2015-Aug-01 06:24N 66°36' E 012°59'4 5.0
2015-Aug-01 05:33N 66°34' E 012°50'3 0.4
2015-Jul-31 20:13N 66°34' E 012°58'2 0.6
2015-Jul-31 17:06N 66°36' E 012°59'3 5.6
2015-Jul-31 16:33N 66°34' E 012°54'5 1.0
2015-Jul-31 11:13N 66°36' E 012°41'6 7.2
2015-Jul-31 10:26N 66°34' E 012°54'3 0.5
2015-Jul-31 05:15N 66°36' E 012°59'5 6.0
2015-Jul-31 04:28N 66°34' E 012°48'2 0.2
2015-Jul-30 18:17N 66°35' E 012°45'6 1.6
2015-Jul-30 14:32N 66°36' E 012°59'5 5.2
2015-Jul-30 13:33N 66°34' E 012°47'3 1.0
2015-Jul-30 10:19N 66°34' E 012°55'3 0.7
2015-Jul-30 06:29N 66°36' E 012°59'4 4.6
2015-Jul-30 05:33N 66°34' E 012°50'0 0.0
2015-Jul-29 20:32N 66°34' E 012°50'4 0.7
2015-Jul-29 14:33N 66°36' E 012°59'5 5.3
2015-Jul-29 13:34N 66°34' E 012°47'1 0.3
2015-Jul-29 10:33N 66°34' E 012°49'5 1.1
2015-Jul-29 06:23N 66°36' E 012°59'5 5.4
2015-Jul-29 05:30N 66°34' E 012°49'4 0.4
2015-Jul-28 20:11N 66°34' E 012°59'  
2015-Jul-25 06:19N 66°36' E 012°59'5 5.4
2015-Jul-25 05:27N 66°34' E 012°49'5 0.4
2015-Jul-24 17:21N 66°37' E 012°59'5 5.0
2015-Jul-24 16:22N 66°34' E 012°50'  

Dump ship's entire track history